Time;durP1;ratioP1;P1;durP2;ratioP2;P2;SDS_P1;SDS_P2;PMS_P1;PMS_P2;Temp;Humidity;BMP_temperature;BMP_pressure;BME280_temperature;BME280_humidity;BME280_pressure;Samples;Min_cycle;Max_cycle;Signal;HPM_P1;HPM_P2
2022/04/28 00:02:06;;;;;;;11.70;3.83;;;;;;;;;;5165913;27;20390;-93
2022/04/28 00:04:51;;;;;;;21.05;4.63;;;;;;;;;;5165132;27;20397;-93
2022/04/28 00:07:36;;;;;;;17.83;5.65;;;;;;;;;;5165279;27;20034;-94
2022/04/28 00:10:21;;;;;;;7.70;3.40;;;;;;;;;;5178028;27;20393;-93
2022/04/28 00:13:06;;;;;;;10.48;3.75;;;;;;;;;;5159441;27;20055;-94
2022/04/28 00:15:51;;;;;;;14.25;6.22;;;;;;;;;;5159786;27;20061;-94
2022/04/28 00:18:35;;;;;;;10.05;3.55;;;;;;;;;;5160137;27;20110;-94
2022/04/28 00:21:20;;;;;;;7.97;3.47;;;7.20;99.90;;;;;;5159306;27;20034;-94
2022/04/28 00:24:05;;;;;;;12.82;3.88;;;;;;;;;;5177372;27;20541;-94
2022/04/28 00:26:50;;;;;;;11.80;4.47;;;;;;;;;;5163315;27;20044;-94
2022/04/28 00:29:37;;;;;;;9.77;3.40;;;;;;;;;;5163763;27;20059;-95
2022/04/28 00:32:22;;;;;;;12.10;3.90;;;;;;;;;;5163571;27;20063;-94
2022/04/28 00:35:09;;;;;;;11.15;3.78;;;;;;;;;;5162610;27;20145;-94
2022/04/28 00:37:54;;;;;;;9.20;4.28;;;;;;;;;;5163255;27;20118;-94
2022/04/28 00:40:41;;;;;;;9.75;3.50;;;;;;;;;;5163195;27;20522;-94
2022/04/28 00:43:32;;;;;;;13.38;3.83;;;7.40;99.90;;;;;;5163613;27;20166;-94
2022/04/28 00:46:17;;;;;;;11.93;4.00;;;;;;;;;;5178748;27;20398;-94
2022/04/28 00:52:07;;;;;;;7.68;3.30;;;;;;;;;;5178077;27;20033;-93
2022/04/28 00:54:53;;;;;;;10.70;4.32;;;7.40;99.90;;;;;;5162854;27;20546;-93
2022/04/28 00:57:38;;;;;;;8.18;3.30;;;;;;;;;;5162954;27;20045;-94
2022/04/28 01:00:23;;;;;;;13.18;3.63;;;;;;;;;;5162354;27;20056;-94
2022/04/28 01:03:09;;;;;;;12.43;4.05;;;7.40;99.90;;;;;;5162096;27;20041;-94
2022/04/28 01:05:57;;;;;;;8.73;3.50;;;;;;;;;;5162456;27;20045;-94
2022/04/28 01:08:42;;;;;;;10.98;3.67;;;;;;;;;;5178317;27;20113;-93
2022/04/28 01:11:27;;;;;;;9.25;3.67;;;;;;;;;;5162483;27;20030;-94
2022/04/28 01:14:14;;;;;;;10.50;3.75;;;;;;;;;;5162092;27;20447;-95
2022/04/28 01:17:00;;;;;;;14.07;4.15;;;;;;;;;;5147761;27;20079;-94
2022/04/28 01:19:46;;;;;;;9.45;3.15;;;;;;;;;;5178276;27;20044;-95
2022/04/28 01:22:38;;;;;;;7.85;4.40;;;;;;;;;;5177322;27;20136;-95
2022/04/28 01:25:22;;;;;;;9.48;3.20;;;;;;;;;;5147377;27;20065;-94
2022/04/28 01:28:07;;;;;;;11.23;3.83;;;;;;;;;;5161607;27;20078;-94
2022/04/28 01:30:52;;;;;;;10.77;3.17;;;;;;;;;;5162423;27;20065;-94
2022/04/28 01:33:39;;;;;;;16.95;4.03;;;;;;;;;;5162409;27;20030;-94
2022/04/28 01:36:27;;;;;;;11.95;4.32;;;;;;;;;;5177079;27;20055;-94
2022/04/28 01:39:12;;;;;;;9.20;3.30;;;;;;;;;;5161391;27;20086;-94
2022/04/28 01:41:57;;;;;;;9.50;4.00;;;;;;;;;;5161900;27;20036;-94
2022/04/28 01:44:42;;;;;;;11.32;3.90;;;;;;;;;;5161866;27;20070;-93
2022/04/28 01:47:26;;;;;;;7.90;3.15;;;;;;;;;;5161555;27;20176;-95
2022/04/28 01:50:12;;;;;;;9.13;3.20;;;7.50;99.90;;;;;;5161324;27;20033;-94
2022/04/28 01:56:02;;;;;;;10.80;4.00;;;;;;;;;;5177189;27;20048;-94
2022/04/28 01:58:49;;;;;;;10.38;3.97;;;;;;;;;;5161474;27;20045;-95
2022/04/28 02:01:34;;;;;;;9.95;3.70;;;;;;;;;;5177307;27;20040;-94
2022/04/28 02:04:19;;;;;;;9.55;3.80;;;;;;;;;;5164357;27;20118;-94
2022/04/28 02:07:04;;;;;;;14.50;4.03;;;;;;;;;;5167715;27;20075;-93
2022/04/28 02:09:48;;;;;;;10.68;4.07;;;;;;;;;;5181593;27;20086;-94
2022/04/28 02:12:33;;;;;;;11.40;3.58;;;;;;;;;;5167401;27;20037;-94
2022/04/28 02:15:18;;;;;;;11.57;4.43;;;;;;;;;;5160534;27;20062;-94
2022/04/28 02:18:03;;;;;;;5.90;2.90;;;;;;;;;;5161254;27;20533;-94
2022/04/28 02:20:48;;;;;;;11.00;3.63;;;;;;;;;;5160920;27;20037;-94
2022/04/28 02:23:32;;;;;;;10.93;3.42;;;;;;;;;;5160338;27;20891;-94
2022/04/28 02:26:20;;;;;;;8.20;3.08;;;;;;;;;;5160486;27;20082;-94
2022/04/28 02:29:04;;;;;;;6.35;3.17;;;;;;;;;;5160933;27;20393;-94
2022/04/28 02:31:49;;;;;;;9.60;3.50;;;;;;;;;;5160636;27;20797;-94
2022/04/28 02:34:35;;;;;;;11.25;3.65;;;;;;;;;;5160184;27;20033;-94
2022/04/28 02:37:19;;;;;;;9.57;3.90;;;;;;;;;;5160042;27;20134;-93
2022/04/28 02:40:04;;;;;;;14.32;3.13;;;;;;;;;;5160516;27;20113;-94
2022/04/28 02:42:52;;;;;;;12.98;3.75;;;;;;;;;;5146430;27;20082;-93
2022/04/28 02:45:37;;;;;;;9.55;3.75;;;;;;;;;;5159923;27;20036;-95
2022/04/28 02:48:22;;;;;;;9.25;3.35;;;;;;;;;;5159829;27;20059;-94
2022/04/28 02:51:07;;;;;;;13.07;3.78;;;;;;;;;;5160721;27;20100;-93
2022/04/28 02:53:52;;;;;;;9.60;3.30;;;;;;;;;;5176182;27;20125;-94
2022/04/28 02:56:37;;;;;;;10.27;3.15;;;;;;;;;;5159658;27;20041;-94
2022/04/28 02:59:21;;;;;;;9.48;3.75;;;;;;;;;;5159763;27;20195;-94
2022/04/28 03:02:08;;;;;;;8.25;3.05;;;;;;;;;;5160781;27;20038;-95
2022/04/28 03:04:56;;;;;;;13.07;4.20;;;;;;;;;;5160471;27;20086;-94
2022/04/28 03:10:53;;;;;;;12.18;3.33;;;;;;;;;;5163401;27;20090;-94
2022/04/28 03:13:46;;;;;;;7.63;3.08;;;;;;;;;;5159997;27;20130;-93
2022/04/28 03:16:31;;;;;;;10.32;3.70;;;;;;;;;;5159640;27;20138;-94
2022/04/28 03:19:15;;;;;;;7.20;3.28;;;;;;;;;;5160399;27;20512;-94
2022/04/28 03:22:00;;;;;;;11.93;3.88;;;;;;;;;;5159979;27;20037;-94
2022/04/28 03:24:44;;;;;;;6.43;2.78;;;;;;;;;;5160176;27;20034;-93
2022/04/28 03:27:32;;;;;;;11.02;3.10;;;7.60;99.90;;;;;;5159740;27;20069;-94
2022/04/28 03:30:16;;;;;;;8.23;3.10;;;;;;;;;;5160109;27;20489;-94
2022/04/28 03:33:01;;;;;;;11.10;3.53;;;;;;;;;;5160314;27;20043;-94
2022/04/28 03:35:46;;;;;;;13.95;3.58;;;;;;;;;;5159687;27;20037;-93
2022/04/28 03:38:31;;;;;;;11.95;3.78;;;;;;;;;;5144843;27;20045;-93
2022/04/28 03:41:15;;;;;;;8.52;3.30;;;;;;;;;;5160085;27;20090;-94
2022/04/28 03:44:00;;;;;;;9.77;3.85;;;;;;;;;;5160210;27;20121;-94
2022/04/28 03:46:45;;;;;;;9.82;3.55;;;;;;;;;;5159477;27;20055;-94
2022/04/28 03:49:29;;;;;;;9.52;3.80;;;;;;;;;;5159452;27;20041;-94
2022/04/28 03:52:14;;;;;;;9.80;3.63;;;;;;;;;;5159849;27;20033;-94
2022/04/28 03:54:58;;;;;;;13.68;3.53;;;;;;;;;;5159772;27;20047;-94
2022/04/28 03:57:43;;;;;;;10.48;4.07;;;;;;;;;;5160857;27;20033;-94
2022/04/28 04:00:27;;;;;;;11.38;4.05;;;;;;;;;;5163307;27;20033;-94
2022/04/28 04:03:12;;;;;;;10.95;3.85;;;;;;;;;;5179405;27;20041;-94
2022/04/28 04:05:56;;;;;;;11.43;3.80;;;;;;;;;;5163990;27;20033;-95
2022/04/28 04:08:41;;;;;;;11.00;4.18;;;;;;;;;;5163367;27;20393;-94
2022/04/28 04:11:28;;;;;;;11.98;4.07;;;;;;;;;;5148812;27;20045;-91
2022/04/28 04:14:13;;;;;;;6.97;3.30;;;;;;;;;;5163745;27;20082;-94
2022/04/28 04:17:00;;;;;;;10.38;4.13;;;;;;;;;;5157488;27;20535;-93
2022/04/28 04:19:45;;;;;;;10.27;3.53;;;;;;;;;;5143444;27;20064;-93
2022/04/28 04:22:30;;;;;;;9.57;3.75;;;;;;;;;;5159386;27;20041;-92
2022/04/28 04:25:14;;;;;;;11.80;3.60;;;;;;;;;;5152409;27;20045;-93
2022/04/28 04:27:59;;;;;;;9.15;3.47;;;;;;;;;;5163636;27;20088;-94
2022/04/28 04:33:55;;;;;;;13.30;3.80;;;;;;;;;;5160991;27;20063;-93
2022/04/28 04:36:53;;;;;;;13.70;4.00;;;;;;;;;;5152124;27;20449;-94
2022/04/28 04:39:41;;;;;;;11.10;3.53;;;;;;;;;;5156177;27;20038;-93
2022/04/28 04:42:29;;;;;;;11.93;4.00;;;;;;;;;;5147458;27;20030;-93
2022/04/28 04:45:14;;;;;;;8.13;3.88;;;;;;;;;;5161836;27;20055;-94
2022/04/28 04:47:59;;;;;;;12.48;3.92;;;;;;;;;;5152748;27;20045;-93
2022/04/28 04:50:49;;;;;;;8.77;3.85;;;;;;;;;;5157636;27;20034;-94
2022/04/28 04:53:39;;;;;;;8.43;3.60;;;;;;;;;;5168192;27;20055;-94
2022/04/28 04:56:24;;;;;;;11.75;4.45;;;;;;;;;;5162627;27;20073;-95
2022/04/28 04:59:11;;;;;;;10.88;5.18;;;;;;;;;;5158596;27;20045;-94
2022/04/28 05:01:59;;;;;;;9.85;3.70;;;;;;;;;;5158122;27;20113;-94
2022/04/28 05:04:52;;;;;;;10.20;3.85;;;;;;;;;;5165954;27;20056;-95
2022/04/28 05:07:41;;;;;;;13.85;4.13;;;;;;;;;;5149344;27;20037;-93
2022/04/28 05:10:36;;;;;;;10.77;4.03;;;;;;;;;;5164477;27;20052;-95
2022/04/28 05:13:28;;;;;;;8.27;3.35;;;;;;;;;;5162062;27;20067;-94
2022/04/28 05:16:29;;;;;;;7.82;4.20;;;;;;;;;;5170401;27;20061;-94
2022/04/28 05:22:48;;;;;;;8.77;3.80;;;;;;;;;;5184567;27;20061;-94
2022/04/28 05:25:40;;;;;;;12.48;3.90;;;;;;;;;;5170459;27;20076;-93
2022/04/28 05:28:28;;;;;;;7.80;3.97;;;;;;;;;;5154650;27;20037;-95
2022/04/28 05:31:36;;;;;;;9.02;3.97;;;;;;;;;;5149336;27;20502;-92
2022/04/28 05:34:44;;;;;;;16.17;3.88;;;;;;;;;;5153127;27;20055;-93
2022/04/28 05:37:47;;;;;;;11.02;3.55;;;;;;;;;;5158236;27;20071;-92
2022/04/28 05:40:41;;;;;;;12.23;4.05;;;;;;;;;;5173483;27;20098;-93
2022/04/28 05:46:56;;;;;;;14.38;4.35;;;;;;;;;;5192622;27;20038;-92
2022/04/28 05:49:42;;;;;;;11.43;4.45;;;;;;;;;;5182504;27;20062;-91
2022/04/28 05:52:27;;;;;;;9.13;4.43;;;;;;;;;;5165251;27;20051;-93
2022/04/28 05:55:17;;;;;;;10.65;4.35;;;;;;;;;;5165002;27;20209;-93
2022/04/28 05:58:05;;;;;;;14.38;4.60;;;;;;;;;;5147293;27;20046;-93
2022/04/28 06:00:52;;;;;;;9.90;4.75;;;;;;;;;;5144749;27;20053;-93
2022/04/28 06:03:39;;;;;;;12.90;4.55;;;;;;;;;;5129103;27;20082;-90
2022/04/28 06:06:36;;;;;;;10.20;4.43;;;;;;;;;;5144173;27;20053;-93
2022/04/28 06:09:29;;;;;;;11.43;3.95;;;;;;;;;;5137122;27;20037;-93
2022/04/28 06:12:14;;;;;;;10.70;3.50;;;;;;;;;;5144201;27;20115;-90
2022/04/28 06:14:59;;;;;;;13.23;3.83;;;;;;;;;;5140803;27;20287;-92
2022/04/28 06:17:46;;;;;;;6.55;3.03;;;;;;;;;;5140956;27;20456;-92
2022/04/28 06:20:36;;;;;;;8.50;3.20;;;;;;;;;;5135214;27;20068;-91
2022/04/28 06:23:39;;;;;;;;;;;;;;;;;;;;;
2022/04/28 06:26:33;;;;;;;8.70;3.55;;;;;;;;;;5175329;27;20401;-92
2022/04/28 06:29:18;;;;;;;9.15;2.85;;;;;;;;;;5156394;27;20030;-92
2022/04/28 06:32:28;;;;;;;10.38;3.50;;;;;;;;;;5159464;27;20599;-91
2022/04/28 06:35:25;;;;;;;13.57;3.05;;;;;;;;;;5139748;27;20393;-93
2022/04/28 06:38:10;;;;;;;9.00;3.33;;;;;;;;;;5140941;27;20034;-93
2022/04/28 06:40:58;;;;;;;8.50;3.45;;;;;;;;;;5139914;27;20562;-92
2022/04/28 06:43:50;;;;;;;6.55;2.60;;;;;;;;;;5139806;27;20037;-90
2022/04/28 06:46:35;;;;;;;10.88;2.65;;;;;;;;;;5145269;27;20038;-92
2022/04/28 06:49:28;;;;;;;11.82;3.55;;;;;;;;;;5176339;27;20041;-90
2022/04/28 06:52:13;;;;;;;11.57;2.50;;;;;;;;;;5140944;27;20098;-92
2022/04/28 06:54:58;;;;;;;9.02;2.83;;;;;;;;;;5153037;27;20064;-91
2022/04/28 06:57:46;;;;;;;10.85;2.30;;;;;;;;;;5143540;27;20083;-93
2022/04/28 07:00:33;;;;;;;9.77;2.95;;;;;;;;;;5135949;27;20036;-92
2022/04/28 07:03:44;;;;;;;10.15;3.45;;;;;;;;;;5156773;27;20041;-92
2022/04/28 07:06:51;;;;;;;10.23;2.85;;;;;;;;;;5134489;27;20045;-93
2022/04/28 07:09:40;;;;;;;7.47;2.25;;;;;;;;;;5170954;27;20098;-92
2022/04/28 07:12:24;;;;;;;12.73;2.88;;;;;;;;;;5139807;27;20079;-93
2022/04/28 07:15:09;;;;;;;11.85;2.78;;;;;;;;;;5141594;27;20044;-93
2022/04/28 07:17:54;;;;;;;12.40;2.80;;;;;;;;;;5143772;27;20091;-92
2022/04/28 07:20:39;;;;;;;9.20;2.60;;;;;;;;;;5159211;27;20086;-92
2022/04/28 07:23:24;;;;;;;9.30;2.83;;;;;;;;;;5161031;27;20034;-92
2022/04/28 07:26:09;;;;;;;7.18;2.10;;;;;;;;;;5160638;27;20046;-93
2022/04/28 07:28:54;;;;;;;8.93;3.15;;;;;;;;;;5160600;27;20450;-92
2022/04/28 07:31:38;;;;;;;7.72;2.70;;;;;;;;;;5159465;27;20029;-89
2022/04/28 07:34:23;;;;;;;9.20;2.35;;;;;;;;;;5142209;27;20467;-90
2022/04/28 07:37:08;;;;;;;6.78;2.85;;;;;;;;;;5142337;27;20058;-91
2022/04/28 07:39:56;;;;;;;9.52;2.60;;;;;;;;;;5156092;27;20090;-90
2022/04/28 07:42:41;;;;;;;11.52;2.80;;;;;;;;;;5165601;27;20069;-91
2022/04/28 07:45:26;;;;;;;10.95;3.15;;;;;;;;;;5165273;27;20436;-91
2022/04/28 07:48:16;;;;;;;6.93;2.70;;;;;;;;;;5165674;27;20489;-93
2022/04/28 07:51:00;;;;;;;12.52;3.22;;;;;;;;;;5165808;27;20050;-92
2022/04/28 07:53:47;;;;;;;11.25;3.05;;;;;;;;;;5152198;27;20045;-92
2022/04/28 07:56:35;;;;;;;11.00;2.55;;;;;;;;;;5166120;27;20094;-93
2022/04/28 07:59:23;;;;;;;5.90;2.10;;;;;;;;;;5166962;27;20501;-93
2022/04/28 08:02:11;;;;;;;11.02;2.40;;;;;;;;;;5165781;27;20037;-93
2022/04/28 08:04:56;;;;;;;7.43;2.33;;;;;;;;;;5166476;27;20067;-91
2022/04/28 08:07:41;;;;;;;14.57;2.85;;;;;;;;;;5181144;27;20041;-93
2022/04/28 08:10:26;;;;;;;6.15;2.08;;;;;;;;;;5165255;27;20032;-92
2022/04/28 08:13:12;;;;;;;10.85;2.30;;;;;;;;;;5149384;27;20384;-92
2022/04/28 08:15:57;;;;;;;5.40;1.95;;;;;;;;;;5165299;27;20138;-91
2022/04/28 08:18:42;;;;;;;4.78;1.58;;;;;;;;;;5168566;27;20041;-94
2022/04/28 08:21:29;;;;;;;8.32;2.22;;;;;;;;;;5167555;27;20041;-94
2022/04/28 08:24:16;;;;;;;6.50;1.92;;;;;;;;;;5167662;27;20081;-94
2022/04/28 08:27:01;;;;;;;7.43;1.85;;;;;;;;;;5165452;27;20086;-93
2022/04/28 08:29:46;;;;;;;7.65;1.90;;;;;;;;;;5165530;27;20497;-95
2022/04/28 08:32:41;;;;;;;8.68;2.00;;;;;;;;;;5163699;27;20109;-93
2022/04/28 08:35:26;;;;;;;6.45;2.30;;;;;;;;;;5164100;27;20151;-93
2022/04/28 08:38:20;;;;;;;5.68;1.73;;;;;;;;;;5165745;27;20090;-94
2022/04/28 08:41:08;;;;;;;6.57;1.88;;;;;;;;;;5175980;27;20021;-92
2022/04/28 08:43:54;;;;;;;7.32;2.00;;;;;;;;;;5178539;27;20037;-92
2022/04/28 08:46:50;;;;;;;7.32;2.25;;;;;;;;;;5185511;27;20063;-94
2022/04/28 08:49:36;;;;;;;6.78;1.70;;;;;;;;;;5200637;27;20073;-92
2022/04/28 08:52:21;;;;;;;8.50;2.65;;;;;;;;;;5186270;27;20051;-94
2022/04/28 08:55:06;;;;;;;9.57;1.85;;;;;;;;;;5181372;27;20046;-93
2022/04/28 08:57:53;;;;;;;7.50;2.17;;;;;;;;;;5169038;27;20045;-93
2022/04/28 09:00:38;;;;;;;10.60;2.17;;;;;;;;;;5164002;27;20402;-93
2022/04/28 09:03:23;;;;;;;10.35;2.20;;;;;;;;;;5163758;27;20524;-93
2022/04/28 09:06:17;;;;;;;10.13;2.47;;;;;;;;;;5163098;27;20045;-93
2022/04/28 09:09:06;;;;;;;8.52;2.30;;;;;;;;;;5164919;27;20041;-93
2022/04/28 09:11:53;;;;;;;8.70;2.15;;;;;;;;;;5166622;27;20037;-92
2022/04/28 09:14:43;;;;;;;7.90;2.22;;;;;;;;;;5169847;27;20103;-94
2022/04/28 09:17:48;;;;;;;10.95;2.15;;;;;;;;;;5192825;27;20061;-94
2022/04/28 09:20:33;;;;;;;8.68;2.00;;;;;;;;;;5177968;27;20114;-94
2022/04/28 09:23:21;;;;;;;8.82;1.98;;;;;;;;;;5164582;27;20428;-94
2022/04/28 09:26:13;;;;;;;7.82;2.13;;;;;;;;;;5162452;27;20045;-92
2022/04/28 09:29:02;;;;;;;11.55;2.75;;;;;;;;;;5162462;27;20063;-93
2022/04/28 09:31:59;;;;;;;8.85;2.17;;;;;;;;;;5162177;27;20390;-93
2022/04/28 09:34:48;;;;;;;7.03;2.20;;;;;;;;;;5162096;27;20103;-93
2022/04/28 09:37:40;;;;;;;6.05;2.10;;;;;;;;;;5167359;27;20110;-93
2022/04/28 09:43:39;;;;;;;6.32;2.13;;;;;;;;;;5178584;27;20055;-92
2022/04/28 09:46:23;;;;;;;7.18;2.40;;;;;;;;;;5161504;27;20059;-94
2022/04/28 09:49:09;;;;;;;7.03;2.20;;;;;;;;;;5162370;27;20056;-93
2022/04/28 09:51:58;;;;;;;12.23;2.60;;;;;;;;;;5162905;27;20077;-94
2022/04/28 09:54:44;;;;;;;9.05;2.17;;;;;;;;;;5169537;27;20042;-95
2022/04/28 09:57:30;;;;;;;9.30;2.42;;;;;;;;;;5173030;27;20102;-94
2022/04/28 10:00:18;;;;;;;12.95;2.30;;;;;;;;;;5168061;27;20089;-94
2022/04/28 10:03:03;;;;;;;14.40;3.60;;;;;;;;;;5165621;27;20113;-94
2022/04/28 10:05:49;;;;;;;9.35;2.90;;;;;;;;;;5165965;27;20082;-93
2022/04/28 10:08:35;;;;;;;12.45;3.58;;;;;;;;;;5161828;27;20405;-94
2022/04/28 10:11:31;;;;;;;9.95;3.80;;;;;;;;;;5163405;27;20045;-94
2022/04/28 10:14:16;;;;;;;11.55;3.90;;;;;;;;;;5162105;27;20089;-94
2022/04/28 10:17:02;;;;;;;10.60;3.40;;;;;;;;;;5161454;27;20061;-94
2022/04/28 10:19:54;;;;;;;15.20;3.47;;;;;;;;;;5161780;27;20033;-93
2022/04/28 10:22:45;;;;;;;11.82;4.38;;;;;;;;;;5161784;27;20082;-95
2022/04/28 10:35:04;;;;;;;9.63;3.20;;;;;;;;;;5180249;27;20452;-93
2022/04/28 10:37:52;;;;;;;12.88;3.95;;;;;;;;;;5162684;27;20040;-94
2022/04/28 10:40:43;;;;;;;7.57;3.38;;;;;;;;;;5163988;27;20033;-93
2022/04/28 10:43:37;;;;;;;12.48;3.70;;;;;;;;;;5162839;27;20485;-94
2022/04/28 10:46:28;;;;;;;9.75;3.35;;;;;;;;;;5163092;27;20057;-93
2022/04/28 10:49:24;;;;;;;13.73;4.25;;;;;;;;;;5161312;27;20045;-94
2022/04/28 10:52:24;;;;;;;11.32;2.95;;;;;;;;;;5161486;27;20481;-94
2022/04/28 10:55:10;;;;;;;10.02;3.15;;;;;;;;;;5162986;27;20084;-94
2022/04/28 10:57:55;;;;;;;11.23;2.90;;;;;;;;;;5169513;27;20063;-95
2022/04/28 11:00:40;;;;;;;9.63;3.08;;;;;;;;;;5161990;27;20057;-93
2022/04/28 11:03:46;;;;;;;8.55;3.28;;;;;;;;;;5162623;27;20033;-94
2022/04/28 11:06:33;;;;;;;10.32;3.00;;;;;;;;;;5162726;27;20401;-93
2022/04/28 11:09:34;;;;;;;8.60;3.15;;;;;;;;;;5164011;27;20519;-93
2022/04/28 11:12:21;;;;;;;11.43;3.10;;;;;;;;;;5150492;27;20137;-93
2022/04/28 11:15:08;;;;;;;9.65;3.17;;;;;;;;;;5153057;27;20055;-90
2022/04/28 11:17:55;;;;;;;9.30;3.10;;;;;;;;;;5128911;27;20407;-93
2022/04/28 11:20:40;;;;;;;10.32;2.65;;;;;;;;;;5132178;27;20495;-92
2022/04/28 11:23:44;;;;;;;14.73;2.58;;;;;;;;;;5132320;27;20084;-93
2022/04/28 11:26:31;;;;;;;10.15;3.30;;;;;;;;;;5129428;27;20083;-92
2022/04/28 11:29:16;;;;;;;11.40;2.75;;;;;;;;;;5139673;27;20037;-92
2022/04/28 11:32:06;;;;;;;10.35;2.58;;;;;;;;;;5139995;27;20071;-93
2022/04/28 11:34:52;;;;;;;10.55;2.92;;;;;;;;;;5139954;27;20065;-89
2022/04/28 11:37:39;;;;;;;11.32;2.88;;;;;;;;;;5155348;27;20110;-93
2022/04/28 11:40:24;;;;;;;8.02;2.63;;;;;;;;;;5139525;27;20079;-92
2022/04/28 11:43:10;;;;;;;8.48;2.42;;;;;;;;;;5141892;27;20039;-88
2022/04/28 11:46:05;;;;;;;12.40;2.88;;;;;;;;;;5139788;28;20021;-88
2022/04/28 11:49:23;;;;;;;8.55;2.58;;;;;;;;;;5142163;28;20038;-92
2022/04/28 11:52:37;;;;;;;10.95;2.85;;;;;;;;;;5143235;27;20104;-94
2022/04/28 11:55:25;;;;;;;9.25;2.75;;;;;;;;;;5138370;28;20058;-95
2022/04/28 11:58:10;;;;;;;13.60;2.88;;;;;;;;;;5125469;28;20046;-94
2022/04/28 12:01:13;;;;;;;13.07;3.08;;;;;;;;;;5123913;28;20041;-94
2022/04/28 12:04:00;;;;;;;14.95;3.67;;;;;;;;;;5125074;28;20070;-89
2022/04/28 12:06:49;;;;;;;9.32;2.65;;;;;;;;;;5124868;28;20054;-92
2022/04/28 12:16:00;;;;;;;12.00;2.67;;;;;;;;;;5128268;27;20054;-94
2022/04/28 12:22:25;;;;;;;14.27;3.28;;;;;;;;;;5159548;27;20045;-94
2022/04/28 12:25:16;;;;;;;7.95;2.70;;;;;;;;;;5144415;27;20069;-95
2022/04/28 12:28:09;;;;;;;7.25;2.30;;;;;;;;;;5143136;27;20061;-94
2022/04/28 12:30:54;;;;;;;15.60;2.50;;;;;;;;;;5143590;27;20034;-94
2022/04/28 12:33:50;;;;;;;12.10;3.00;;;;;;;;;;5158201;27;20037;-93
2022/04/28 12:37:05;;;;;;;7.72;2.47;;;;;;;;;;5142478;27;20038;-92
2022/04/28 12:39:58;;;;;;;9.52;3.00;;;;;;;;;;5157873;27;20053;-94
2022/04/28 12:42:45;;;;;;;12.98;3.35;;;;;;;;;;5143418;27;20038;-93
2022/04/28 12:45:40;;;;;;;10.10;2.50;;;;;;;;;;5143547;27;20064;-94
2022/04/28 12:48:33;;;;;;;9.57;2.40;;;;;;;;;;5149063;27;20498;-91
2022/04/28 12:51:21;;;;;;;13.35;2.72;;;;;;;;;;5156982;27;20091;-93
2022/04/28 12:54:20;;;;;;;10.23;2.58;;;;;;;;;;5142767;27;20079;-91
2022/04/28 12:57:05;;;;;;;13.48;2.63;;;;;;;;;;5142675;27;20042;-93
2022/04/28 12:59:49;;;;;;;11.05;2.92;;;;;;;;;;5142463;27;20057;-94
2022/04/28 13:02:42;;;;;;;8.93;2.60;;;;;;;;;;5143549;27;20034;-94
2022/04/28 13:05:28;;;;;;;12.05;3.35;;;;;;;;;;5142735;27;20033;-94
2022/04/28 13:08:12;;;;;;;11.45;2.90;;;;;;;;;;5142774;27;20057;-92
2022/04/28 13:10:57;;;;;;;10.85;2.70;;;;;;;;;;5141918;27;20104;-92
2022/04/28 13:13:42;;;;;;;10.38;2.92;;;;;;;;;;5141988;27;20101;-94
2022/04/28 13:16:34;;;;;;;7.75;2.90;;;;;;;;;;5141252;27;20070;-92
2022/04/28 13:19:19;;;;;;;9.75;2.45;;;;;;;;;;5142606;27;20050;-91
2022/04/28 13:22:04;;;;;;;10.73;2.63;;;;;;;;;;5141698;27;20038;-90
2022/04/28 13:24:49;;;;;;;13.48;3.05;;;;;;;;;;5141142;27;20056;-91
2022/04/28 13:27:33;;;;;;;12.15;3.10;;;;;;;;;;5141582;27;20118;-90
2022/04/28 13:30:21;;;;;;;7.88;2.60;;;;;;;;;;5141683;27;20083;-91
2022/04/28 13:33:05;;;;;;;12.93;2.80;;;;;;;;;;5127437;27;20038;-90
2022/04/28 13:35:50;;;;;;;8.70;2.97;;;;;;;;;;5126809;27;20390;-90
2022/04/28 13:38:36;;;;;;;9.35;2.63;;;;;;;;;;5142239;27;20037;-90
2022/04/28 13:41:21;;;;;;;6.70;2.53;;;;;;;;;;5142195;27;20030;-90
2022/04/28 13:44:11;;;;;;;8.25;2.55;;;;;;;;;;5141738;27;20065;-89
2022/04/28 13:46:56;;;;;;;10.88;3.08;;;;;;;;;;5143451;27;20469;-93
2022/04/28 13:49:41;;;;;;;8.43;2.80;;;;;;;;;;5142850;27;20033;-90
2022/04/28 13:52:28;;;;;;;10.25;3.50;;;;;;;;;;5140895;27;20107;-94
2022/04/28 13:55:13;;;;;;;7.30;2.42;;;;;;;;;;5126355;27;20045;-92
2022/04/28 13:58:06;;;;;;;8.07;2.47;;;;;;;;;;5140468;27;20075;-91
2022/04/28 14:00:53;;;;;;;9.23;2.58;;;;;;;;;;5134226;27;20026;-91
2022/04/28 14:03:39;;;;;;;9.00;2.47;;;;;;;;;;5124525;27;20493;-93
2022/04/28 14:06:23;;;;;;;7.72;2.55;;;;;;;;;;5143891;27;20530;-92
2022/04/28 14:09:10;;;;;;;10.27;3.03;;;;;;;;;;5131577;27;20083;-93
2022/04/28 14:11:57;;;;;;;6.35;2.60;;;;;;;;;;5140718;27;20069;-90
2022/04/28 14:14:42;;;;;;;8.35;2.80;;;;;;;;;;5141271;27;20041;-93
2022/04/28 14:17:28;;;;;;;8.50;2.47;;;;;;;;;;5141277;27;20109;-92
2022/04/28 14:20:13;;;;;;;8.65;2.65;;;;;;;;;;5142137;27;20118;-93
2022/04/28 14:22:58;;;;;;;9.30;2.28;;;;;;;;;;5140527;27;20507;-92
2022/04/28 14:25:45;;;;;;;10.10;2.50;;;;;;;;;;5139582;27;20037;-89
2022/04/28 14:28:30;;;;;;;9.27;3.03;;;;;;;;;;5141071;27;20127;-94
2022/04/28 14:31:15;;;;;;;9.57;2.33;;;;;;;;;;5140478;27;20077;-91
2022/04/28 14:34:02;;;;;;;8.07;2.28;;;;;;;;;;5156175;27;20041;-93
2022/04/28 14:36:47;;;;;;;7.93;2.45;;;;;;;;;;5126137;27;20073;-89
2022/04/28 14:39:33;;;;;;;8.68;2.13;;;;;;;;;;5140997;27;20045;-92
2022/04/28 14:42:18;;;;;;;11.57;2.72;;;;;;;;;;5139948;27;20038;-93
2022/04/28 14:45:03;;;;;;;8.60;2.40;;;;;;;;;;5140717;27;20069;-92
2022/04/28 14:47:48;;;;;;;7.13;2.28;;;;;;;;;;5140702;27;20517;-91
2022/04/28 14:53:36;;;;;;;10.57;2.35;;;;;;;;;;5156959;27;20054;-93
2022/04/28 14:56:23;;;;;;;7.57;2.17;;;;;;;;;;5143611;27;20038;-90
2022/04/28 14:59:08;;;;;;;6.85;2.63;;;;;;;;;;5138262;27;20221;-87
2022/04/28 15:01:55;;;;;;;9.65;2.40;;;;;;;;;;5137861;27;20088;-86
2022/04/28 15:04:45;;;;;;;11.50;3.78;;;;;;;;;;5154099;27;20038;-87
2022/04/28 15:07:33;;;;;;;17.85;2.60;;;;;;;;;;5154051;27;20087;-88
2022/04/28 15:10:18;;;;;;;4.97;2.17;;;;;;;;;;5138864;27;20076;-86
2022/04/28 15:13:03;;;;;;;6.50;2.28;;;;;;;;;;5137916;27;20497;-88
2022/04/28 15:15:48;;;;;;;12.10;2.10;;;;;;;;;;5138336;27;20151;-89
2022/04/28 15:18:33;;;;;;;6.95;2.58;;;;;;;;;;5154610;27;20075;-85
2022/04/28 15:21:17;;;;;;;7.68;2.10;;;;;;;;;;5144036;27;20034;-87
2022/04/28 15:24:06;;;;;;;10.73;2.47;;;;;;;;;;5117393;27;20054;-85
2022/04/28 15:26:51;;;;;;;12.15;2.45;;;;;;;;;;5113622;27;20118;-89
2022/04/28 15:29:36;;;;;;;10.73;2.55;;;;;;;;;;5109376;27;20084;-87
2022/04/28 15:32:20;;;;;;;8.05;2.55;;;;;;;;;;5119033;27;20038;-91
2022/04/28 15:35:06;;;;;;;11.35;2.38;;;;;;;;;;5126342;27;20140;-90
2022/04/28 15:37:50;;;;;;;7.90;2.55;;;;;;;;;;5126921;27;20029;-87
2022/04/28 15:40:37;;;;;;;9.07;2.50;;;;;;;;;;5130527;27;20492;-88
2022/04/28 15:43:22;;;;;;;9.68;2.58;;;;;;;;;;5130117;27;20044;-90
2022/04/28 15:46:07;;;;;;;8.55;2.70;;;;;;;;;;5115821;28;20532;-89
2022/04/28 15:48:51;;;;;;;8.77;3.10;;;;;;;;;;5131117;27;20080;-87
2022/04/28 15:51:37;;;;;;;7.93;3.13;;;;;;;;;;5132089;27;20151;-88
2022/04/28 15:54:22;;;;;;;10.45;3.42;;;;;;;;;;5125153;27;20485;-87
2022/04/28 15:57:13;;;;;;;10.50;2.80;;;;;;;;;;5139957;27;20142;-90
2022/04/28 15:59:57;;;;;;;14.18;2.95;;;;;;;;;;5119747;27;20403;-87
2022/04/28 16:02:42;;;;;;;7.35;2.67;;;;;;;;;;5119768;27;20074;-85
2022/04/28 16:05:27;;;;;;;6.25;2.70;;;;;;;;;;5135606;27;20115;-85
2022/04/28 16:08:12;;;;;;;9.93;3.40;;;;;;;;;;5134713;27;20076;-86
2022/04/28 16:10:56;;;;;;;7.97;2.85;;;;;;;;;;5127601;27;20151;-85
2022/04/28 16:13:41;;;;;;;8.02;2.90;;;;;;;;;;5137586;27;20401;-86
2022/04/28 16:16:26;;;;;;;10.18;2.78;;;;;;;;;;5141680;27;20041;-86
2022/04/28 16:19:11;;;;;;;13.10;3.35;;;;;;;;;;5132914;27;20056;-86
2022/04/28 16:22:01;;;;;;;11.48;2.60;;;;;;;;;;5150616;27;20429;-86
2022/04/28 16:24:46;;;;;;;7.72;3.13;;;;;;;;;;5140274;27;20037;-86
2022/04/28 16:27:32;;;;;;;9.20;3.10;;;;;;;;;;5140212;27;20265;-87
2022/04/28 16:30:17;;;;;;;5.32;2.10;;;;;;;;;;5141393;27;20443;-87
2022/04/28 16:33:03;;;;;;;10.05;3.28;;;;;;;;;;5141334;27;20553;-87
2022/04/28 16:35:58;;;;;;;10.30;2.83;;;;;;;;;;5157303;27;20042;-91
2022/04/28 16:38:45;;;;;;;8.77;3.00;;;;;;;;;;5127276;27;20099;-91
2022/04/28 16:41:30;;;;;;;8.45;2.80;;;;;;;;;;5141291;27;20539;-86
2022/04/28 16:44:14;;;;;;;10.70;3.25;;;;;;;;;;5140794;27;20029;-92
2022/04/28 16:47:00;;;;;;;8.30;2.72;;;;;;;;;;5120238;27;20088;-88
2022/04/28 16:49:44;;;;;;;7.63;3.13;;;;;;;;;;5136273;27;20439;-89
2022/04/28 16:52:29;;;;;;;9.25;2.97;;;;;;;;;;5120663;27;20053;-93
2022/04/28 16:55:14;;;;;;;6.47;2.55;;;;;;;;;;5119812;27;20038;-88
2022/04/28 16:58:00;;;;;;;9.10;3.00;;;;;;;;;;5120944;27;20087;-87
2022/04/28 17:00:45;;;;;;;8.18;3.50;;;;;;;;;;5120443;27;20083;-88
2022/04/28 17:06:36;;;;;;;10.50;2.88;;;;;;;;;;5135939;27;20049;-88
2022/04/28 17:09:21;;;;;;;9.05;3.35;;;;;;;;;;5119921;27;20521;-89
2022/04/28 17:12:06;;;;;;;13.85;3.05;;;;;;;;;;5121223;27;20070;-90
2022/04/28 17:14:51;;;;;;;6.65;2.17;;;;;;;;;;5135659;27;20398;-91
2022/04/28 17:17:36;;;;;;;7.50;2.97;;;;;;;;;;5141365;27;20062;-88
2022/04/28 17:20:20;;;;;;;11.43;2.63;;;;;;;;;;5140153;27;20076;-88
2022/04/28 17:23:05;;;;;;;7.53;2.58;;;;;;;;;;5122622;27;20069;-91
2022/04/28 17:25:50;;;;;;;10.88;2.97;;;;;;;;;;5120146;27;20058;-90